createdAt,value
2023-03-23T15:58:18.535Z,96469.56
2023-03-23T16:00:45.209Z,96474.69
2023-03-23T16:03:14.924Z,96458.91
2023-03-23T16:05:41.737Z,96463.53
2023-03-23T16:08:11.185Z,96455.66
2023-03-23T16:10:37.940Z,96457.53
2023-03-23T16:13:04.551Z,96452.09
2023-03-23T16:15:31.313Z,96457.81
2023-03-23T16:17:58.045Z,96454.84
2023-03-23T16:20:24.864Z,96453.47
2023-03-23T16:22:51.816Z,96451.84
2023-03-23T16:25:18.738Z,96443.44
2023-03-23T16:27:45.467Z,96442.63
2023-03-23T16:30:16.865Z,96456.75
2023-03-23T16:32:43.496Z,96459.75
2023-03-23T16:35:10.384Z,96454.31
2023-03-23T16:37:37.113Z,96454.59
2023-03-23T16:40:04.160Z,96444.00
2023-03-23T16:42:30.787Z,96438.88
2023-03-23T16:44:57.667Z,96441.34
2023-03-23T16:47:24.441Z,96440.00
2023-03-23T16:49:53.805Z,96444.59
2023-03-23T16:52:20.477Z,96432.38
2023-03-23T16:54:47.148Z,96436.50
2023-03-23T16:57:13.802Z,96438.94
2023-03-23T16:59:40.515Z,96431.31
2023-03-23T17:02:07.199Z,96433.75
2023-03-23T17:04:33.912Z,96431.31
2023-03-23T17:07:00.622Z,96433.50
2023-03-23T17:09:28.536Z,96432.69
2023-03-23T17:11:55.165Z,96431.84
2023-03-23T17:14:21.813Z,96428.88
2023-03-23T17:16:48.459Z,96435.38
2023-03-23T17:19:15.137Z,96428.06
2023-03-23T17:21:41.758Z,96429.66
2023-03-23T17:24:08.482Z,96433.19
2023-03-23T17:26:35.448Z,96437.53
2023-03-23T17:29:02.290Z,96432.09
2023-03-23T17:31:29.210Z,96428.31
2023-03-23T17:33:56.039Z,96426.16
2023-03-23T17:36:22.764Z,96419.34
2023-03-23T17:38:49.502Z,96418.78
2023-03-23T17:41:16.185Z,96419.88
2023-03-23T17:43:42.832Z,96415.50
2023-03-23T17:46:10.069Z,96406.81
2023-03-23T17:48:36.943Z,96407.34
2023-03-23T17:51:03.729Z,96403.53
2023-03-23T17:53:31.270Z,96408.94
2023-03-23T17:55:58.421Z,96408.13
2023-03-23T17:58:25.194Z,96411.63
2023-03-23T18:00:52.058Z,96409.47
2023-03-23T18:03:18.701Z,96410.84
2023-03-23T18:05:45.453Z,96408.34
2023-03-23T18:08:12.154Z,96402.88
2023-03-23T18:10:39.784Z,96406.34
2023-03-23T18:13:07.285Z,96403.09
2023-03-23T18:15:34.246Z,96407.16
2023-03-23T18:18:01.124Z,96401.97
2023-03-23T18:20:27.818Z,96402.50
2023-03-23T18:22:54.577Z,96400.13
2023-03-23T18:25:21.232Z,96404.41
2023-03-23T18:27:47.886Z,96399.81
2023-03-23T18:30:14.507Z,96386.50
2023-03-23T18:32:41.278Z,96398.47
2023-03-23T18:35:09.046Z,96398.44
2023-03-23T18:37:35.908Z,96396.28
2023-03-23T18:40:02.601Z,96393.22
2023-03-23T18:42:29.282Z,96391.06
2023-03-23T18:44:55.954Z,96395.41
2023-03-23T18:47:22.777Z,96393.50
2023-03-23T18:49:49.529Z,96392.72
2023-03-23T18:52:16.231Z,96387.31
2023-03-23T18:54:42.879Z,96382.41
2023-03-23T18:57:09.732Z,96388.66
2023-03-23T18:59:36.554Z,96388.63
2023-03-23T19:02:03.625Z,96386.72
2023-03-23T19:04:30.597Z,96401.31
2023-03-23T19:07:00.602Z,96394.28
2023-03-23T19:09:28.307Z,96377.47
2023-03-23T19:11:55.071Z,96381.53
2023-03-23T19:14:21.736Z,96376.06
2023-03-23T19:16:49.028Z,96380.41
2023-03-23T19:19:16.524Z,96380.56
2023-03-23T19:21:46.828Z,96388.97
2023-03-23T19:24:14.045Z,96382.47
2023-03-23T19:26:42.132Z,96376.16
2023-03-23T19:31:40.766Z,96372.34
2023-03-23T19:34:07.669Z,96380.47
2023-03-23T19:36:35.110Z,96370.44
2023-03-23T19:39:02.955Z,96377.97
2023-03-23T19:41:29.842Z,96372.78
2023-03-23T19:43:56.528Z,96367.16
2023-03-23T19:46:23.605Z,96361.19
2023-03-23T19:48:50.352Z,96360.28
2023-03-23T19:51:18.782Z,96365.22
2023-03-23T19:53:45.857Z,96364.34
2023-03-23T19:56:13.668Z,96358.34
2023-03-23T19:58:40.323Z,96349.94
2023-03-23T20:01:06.978Z,96345.09
2023-03-23T20:03:33.706Z,96343.47
2023-03-23T20:06:01.439Z,96336.19
2023-03-23T20:08:28.454Z,96344.53
2023-03-23T20:11:12.077Z,96342.38
2023-03-23T20:13:39.974Z,96347.78
2023-03-23T20:16:07.401Z,96345.06
2023-03-23T20:18:34.034Z,96340.13
2023-03-23T20:21:11.330Z,96343.09
2023-03-23T20:23:38.424Z,96342.84
2023-03-23T20:26:11.679Z,96349.16
2023-03-23T20:28:39.075Z,96352.34
2023-03-23T20:31:19.411Z,96356.63
2023-03-23T20:34:00.136Z,96357.22
2023-03-23T20:36:32.983Z,96361.75
2023-03-23T20:38:59.726Z,96360.16
2023-03-23T20:41:28.692Z,96364.47
2023-03-23T20:43:55.354Z,96360.13
2023-03-23T20:46:22.014Z,96358.75
2023-03-23T20:48:48.643Z,96369.59
2023-03-23T20:51:15.319Z,96371.75
2023-03-23T20:53:42.023Z,96384.56
2023-03-23T20:56:08.648Z,96397.44
2023-03-23T20:58:35.297Z,96413.09
2023-03-23T21:01:02.786Z,96429.06
2023-03-23T21:03:32.100Z,96437.16
2023-03-23T21:05:58.741Z,96446.41
2023-03-23T21:08:25.382Z,96445.09
2023-03-23T21:10:52.009Z,96438.53
2023-03-23T21:13:18.664Z,96434.88
2023-03-23T21:15:45.738Z,96436.25
2023-03-23T21:18:13.054Z,96438.13
2023-03-23T21:20:39.977Z,96430.03
2023-03-23T21:23:06.700Z,96446.88
2023-03-23T21:25:35.198Z,96417.84
2023-03-23T21:28:02.411Z,96441.66
2023-03-23T21:30:29.394Z,96453.88
2023-03-23T21:32:56.064Z,96432.97
2023-03-23T21:35:22.881Z,96451.09
2023-03-23T21:37:50.201Z,96432.47
2023-03-23T21:40:17.167Z,96454.84
2023-03-23T21:42:44.876Z,96453.53
2023-03-23T21:45:12.563Z,96431.19
2023-03-23T21:47:39.640Z,96367.94
2023-03-23T21:50:06.771Z,96353.91
2023-03-23T21:52:33.604Z,96367.13
2023-03-23T21:55:00.502Z,96353.19
2023-03-23T21:57:27.207Z,96334.25
2023-03-23T21:59:53.832Z,96326.25
2023-03-23T22:02:20.635Z,96338.44
2023-03-23T22:04:47.326Z,96338.66
2023-03-23T22:07:14.075Z,96342.50
2023-03-23T22:09:40.915Z,96338.44
2023-03-23T22:12:07.631Z,96345.50
2023-03-23T22:14:34.254Z,96338.72
2023-03-23T22:17:00.988Z,96332.44
2023-03-23T22:19:27.675Z,96322.94
2023-03-23T22:21:54.362Z,96310.81
2023-03-23T22:24:22.358Z,96316.00
2023-03-23T22:26:49.101Z,96325.47
2023-03-23T22:29:15.753Z,96318.16
2023-03-23T22:31:42.432Z,96322.72
2023-03-23T22:34:09.647Z,96334.31
2023-03-23T22:36:36.307Z,96339.72
2023-03-23T22:39:04.543Z,96345.13
2023-03-23T22:41:36.614Z,96352.50
2023-03-23T22:44:04.679Z,96347.81
2023-03-23T22:46:31.324Z,96347.28
2023-03-23T22:48:58.123Z,96326.50
2023-03-23T22:51:24.948Z,96327.78
2023-03-23T22:53:51.670Z,96357.03
2023-03-23T22:56:18.369Z,96367.78
2023-03-23T22:58:45.276Z,96370.75
2023-03-23T23:01:14.831Z,96366.38
2023-03-23T23:03:41.524Z,96378.81
2023-03-23T23:06:09.633Z,96378.53
2023-03-23T23:08:36.295Z,96369.66
2023-03-23T23:11:03.337Z,96373.69
2023-03-23T23:13:31.862Z,96378.38
2023-03-23T23:16:00.647Z,96359.81
2023-03-23T23:18:27.322Z,96350.22
2023-03-23T23:20:56.213Z,96348.41
2023-03-23T23:23:23.719Z,96345.72
2023-03-23T23:25:50.460Z,96369.06
2023-03-23T23:28:17.321Z,96390.69
2023-03-23T23:30:44.326Z,96387.25
2023-03-23T23:33:11.183Z,96403.94
2023-03-23T23:35:38.332Z,96397.78
2023-03-23T23:38:05.451Z,96402.16
2023-03-23T23:40:32.363Z,96414.28
2023-03-23T23:42:59.079Z,96394.81
2023-03-23T23:45:25.718Z,96380.50
2023-03-23T23:47:52.387Z,96391.56
2023-03-23T23:50:19.081Z,96384.78
2023-03-23T23:52:45.748Z,96374.78
2023-03-23T23:55:13.774Z,96388.81
2023-03-23T23:57:40.411Z,96392.31
